Time;durP1;ratioP1;P1;durP2;ratioP2;P2;SDS_P1;SDS_P2;PMS_P1;PMS_P2;Temp;Humidity;BMP_temperature;BMP_pressure;BME280_temperature;BME280_humidity;BME280_pressure;Samples;Min_cycle;Max_cycle;Signal;HPM_P1;HPM_P2
2022/10/15 00:00:32;;;;;;;;;;;22.60;71.40;;;;;;6179221;28;20041;-63
2022/10/15 00:03:36;;;;;;;0.00;0.00;;;22.70;71.90;;;;;;6176500;28;19972;-63
2022/10/15 00:06:37;;;;;;;0.20;0.10;;;22.90;71.60;;;;;;6183515;28;21084;-62
2022/10/15 00:09:42;;;;;;;;;;;23.10;72.00;;;;;;6179907;28;20037;-63
2022/10/15 00:12:44;;;;;;;0.13;0.10;;;22.70;72.10;;;;;;6181223;28;19936;-62
2022/10/15 00:15:45;;;;;;;;;;;24.40;73.00;;;;;;6182711;28;20051;-62
2022/10/15 00:18:48;;;;;;;0.50;0.20;;;22.70;72.30;;;;;;6188736;28;19929;-62
2022/10/15 00:21:49;;;;;;;0.10;0.10;;;22.50;71.70;;;;;;6167095;28;20713;-62
2022/10/15 00:24:51;;;;;;;0.20;0.20;;;23.00;72.40;;;;;;6183519;28;20136;-62
2022/10/15 00:27:52;;;;;;;0.35;0.20;;;23.00;72.50;;;;;;6180754;28;20132;-62
2022/10/15 00:30:59;;;;;;;;;;;23.10;72.40;;;;;;6187563;28;21070;-62
2022/10/15 00:34:01;;;;;;;0.17;0.10;;;22.80;72.60;;;;;;6183538;28;19929;-62
2022/10/15 00:37:03;;;;;;;0.10;0.10;;;22.60;72.30;;;;;;6189714;28;20045;-62
2022/10/15 00:40:09;;;;;;;0.20;0.10;;;23.10;72.80;;;;;;6186679;28;20029;-63
2022/10/15 00:43:11;;;;;;;0.10;0.10;;;22.70;73.10;;;;;;6183860;28;20132;-62
2022/10/15 00:46:19;;;;;;;0.20;0.10;;;22.70;72.60;;;;;;6186226;28;20121;-62
2022/10/15 00:49:25;;;;;;;0.10;0.10;;;22.60;72.50;;;;;;6164010;28;20896;-62
2022/10/15 00:52:33;;;;;;;0.10;0.10;;;22.80;72.70;;;;;;6187751;28;20050;-63
2022/10/15 00:55:41;;;;;;;0.10;0.10;;;23.00;72.80;;;;;;6165102;28;20088;-63
2022/10/15 00:58:45;;;;;;;0.47;0.17;;;22.70;72.70;;;;;;6185220;28;20042;-62
2022/10/15 01:01:47;;;;;;;0.10;0.10;;;22.80;72.80;;;;;;6185355;28;20032;-62
2022/10/15 01:04:54;;;;;;;0.30;0.20;;;23.00;73.00;;;;;;6187092;28;21097;-62
2022/10/15 01:07:56;;;;;;;0.10;0.05;;;23.10;73.00;;;;;;6175159;28;20042;-62
2022/10/15 01:11:09;;;;;;;0.10;0.10;;;22.90;72.90;;;;;;6186141;28;20049;-63
2022/10/15 01:14:26;;;;;;;0.20;0.10;;;23.40;73.20;;;;;;6177688;28;20132;-63
2022/10/15 01:17:35;;;;;;;0.50;0.10;;;22.50;72.70;;;;;;6183236;28;20053;-62
2022/10/15 01:20:51;;;;;;;0.30;0.10;;;22.90;73.50;;;;;;6181089;28;20905;-63
2022/10/15 01:24:24;;;;;;;0.45;0.20;;;23.20;73.10;;;;;;6166939;28;20117;-63
2022/10/15 01:27:37;;;;;;;0.30;0.10;;;23.10;73.20;;;;;;6167224;28;20068;-62
2022/10/15 01:30:44;;;;;;;0.30;0.20;;;22.90;73.10;;;;;;6162924;28;20072;-63
2022/10/15 01:33:52;;;;;;;0.40;0.28;;;23.10;73.00;;;;;;6178522;28;20342;-63
2022/10/15 01:37:03;;;;;;;0.30;0.20;;;22.90;72.90;;;;;;6181944;28;20431;-62
2022/10/15 01:40:09;;;;;;;0.30;0.17;;;23.00;73.00;;;;;;6183242;28;20195;-62
2022/10/15 01:43:18;;;;;;;0.32;0.10;;;22.90;72.90;;;;;;6180133;28;20057;-63
2022/10/15 01:46:44;;;;;;;0.10;0.10;;;22.80;72.70;;;;;;6179786;28;20060;-63
2022/10/15 01:49:53;;;;;;;0.13;0.10;;;23.00;87.70;;;;;;6162153;28;20057;-63
2022/10/15 01:52:56;;;;;;;0.17;0.10;;;22.80;72.70;;;;;;6147584;28;20377;-63
2022/10/15 01:56:01;;;;;;;0.30;0.10;;;22.80;72.70;;;;;;6184133;28;20052;-63
2022/10/15 01:59:05;;;;;;;0.10;0.10;;;23.00;72.70;;;;;;6163843;28;21064;-62
2022/10/15 02:02:07;;;;;;;0.10;0.10;;;22.70;72.60;;;;;;6188646;28;20328;-64
2022/10/15 02:05:15;;;;;;;0.10;0.10;;;22.70;72.40;;;;;;6188772;28;20374;-62
2022/10/15 02:08:26;;;;;;;0.38;0.20;;;22.90;72.50;;;;;;6167079;28;20365;-62
2022/10/15 02:11:31;;;;;;;0.35;0.10;;;22.70;72.30;;;;;;6185381;28;20220;-62
2022/10/15 02:14:40;;;;;;;0.15;0.15;;;22.50;72.10;;;;;;6187631;28;20318;-63
2022/10/15 02:17:45;;;;;;;0.40;0.20;;;23.00;72.30;;;;;;6172339;28;20541;-63
2022/10/15 02:20:54;;;;;;;0.20;0.15;;;22.70;72.00;;;;;;6187448;28;20121;-63
2022/10/15 02:24:05;;;;;;;0.20;0.10;;;23.10;72.20;;;;;;6184695;28;20060;-63
2022/10/15 02:27:09;;;;;;;0.10;0.00;;;22.60;71.80;;;;;;6185236;28;20500;-62
2022/10/15 02:30:12;;;;;;;0.17;0.10;;;23.00;72.00;;;;;;6181737;28;20046;-63
2022/10/15 02:33:17;;;;;;;0.10;0.10;;;22.70;71.80;;;;;;6187011;28;20517;-63
2022/10/15 02:36:19;;;;;;;0.22;0.10;;;23.20;72.00;;;;;;6182841;28;20041;-63
2022/10/15 02:39:23;;;;;;;0.25;0.20;;;23.00;71.90;;;;;;6164556;28;20615;-62
2022/10/15 02:42:25;;;;;;;0.20;0.10;;;23.10;71.70;;;;;;6185887;28;20080;-63
2022/10/15 02:45:27;;;;;;;0.10;0.10;;;23.00;71.70;;;;;;6186145;28;20447;-62
2022/10/15 02:48:29;;;;;;;0.38;0.15;;;22.60;71.40;;;;;;6187883;28;20073;-63
2022/10/15 02:51:31;;;;;;;0.22;0.13;;;23.20;71.40;;;;;;6184492;28;20151;-63
2022/10/15 02:54:33;;;;;;;0.40;0.22;;;22.80;71.10;;;;;;6188821;28;20296;-62
2022/10/15 02:57:35;;;;;;;0.52;0.10;;;22.50;71.00;;;;;;6182693;28;20049;-63
2022/10/15 03:00:38;;;;;;;0.20;0.10;;;22.80;71.00;;;;;;6184528;28;20049;-63
2022/10/15 03:03:40;;;;;;;0.68;0.20;;;22.60;70.80;;;;;;6186434;28;20476;-61
2022/10/15 03:06:42;;;;;;;0.28;0.28;;;23.00;70.70;;;;;;6185610;28;20993;-62
2022/10/15 03:09:43;;;;;;;0.43;0.10;;;23.00;70.90;;;;;;6184936;28;20144;-63
2022/10/15 03:12:45;;;;;;;0.10;0.10;;;22.80;70.70;;;;;;6179503;28;20564;-63
2022/10/15 03:15:48;;;;;;;0.40;0.22;;;22.90;70.70;;;;;;6186882;28;20054;-63
2022/10/15 03:18:50;;;;;;;0.20;0.20;;;22.80;70.50;;;;;;6184666;28;20049;-63
2022/10/15 03:21:53;;;;;;;0.10;0.10;;;22.70;70.40;;;;;;6190015;28;20312;-63
2022/10/15 03:24:54;;;;;;;;;;;23.20;70.60;;;;;;6186107;28;20353;-63
2022/10/15 03:27:59;;;;;;;0.30;0.10;;;22.60;70.50;;;;;;6184619;28;20339;-62
2022/10/15 03:31:13;;;;;;;0.10;0.10;;;22.80;70.40;;;;;;6169743;28;20034;-63
2022/10/15 03:34:15;;;;;;;0.40;0.20;;;22.80;70.20;;;;;;6186597;28;20134;-62
2022/10/15 03:37:17;;;;;;;0.20;0.15;;;22.80;69.70;;;;;;6186409;28;20179;-63
2022/10/15 03:40:19;;;;;;;0.32;0.22;;;23.00;70.20;;;;;;6185788;28;20427;-63
2022/10/15 03:43:24;;;;;;;0.10;0.10;;;22.90;70.00;;;;;;6185801;28;20045;-63
2022/10/15 03:46:29;;;;;;;0.20;0.10;;;22.70;69.60;;;;;;6182069;28;20046;-63
2022/10/15 03:49:31;;;;;;;0.20;0.10;;;22.70;69.60;;;;;;6181906;28;20215;-62
2022/10/15 03:52:33;;;;;;;0.10;0.10;;;23.10;69.80;;;;;;6185629;28;20053;-63
2022/10/15 03:55:35;;;;;;;0.75;0.20;;;22.80;69.60;;;;;;6188793;28;20696;-63
2022/10/15 03:58:37;;;;;;;0.40;0.20;;;23.00;70.30;;;;;;6150232;28;20053;-64
2022/10/15 04:01:45;;;;;;;0.30;0.10;;;22.40;69.60;;;;;;6183167;28;20191;-63
2022/10/15 04:04:51;;;;;;;0.22;0.13;;;23.00;69.50;;;;;;6177369;28;20602;-62
2022/10/15 04:07:52;;;;;;;0.10;0.10;;;23.00;69.20;;;;;;6179433;28;20180;-63
2022/10/15 04:10:55;;;;;;;0.17;0.10;;;22.80;69.30;;;;;;6183812;28;20374;-63
2022/10/15 04:13:59;;;;;;;0.20;0.20;;;22.90;69.20;;;;;;6184475;28;20732;-64
2022/10/15 04:17:00;;;;;;;0.10;0.10;;;22.90;69.00;;;;;;6173454;28;20092;-63
2022/10/15 04:20:05;;;;;;;0.10;0.10;;;22.70;69.00;;;;;;6179139;28;20038;-63
2022/10/15 04:23:06;;;;;;;0.03;0.00;;;22.50;68.50;;;;;;6173815;28;20242;-63
2022/10/15 04:26:09;;;;;;;0.10;0.10;;;22.90;69.00;;;;;;6179579;28;20127;-62
2022/10/15 04:29:10;;;;;;;;;;;23.00;68.90;;;;;;6178782;28;20316;-62
2022/10/15 04:32:16;;;;;;;0.10;0.10;;;22.90;69.10;;;;;;6176923;28;19972;-63
2022/10/15 04:35:20;;;;;;;0.10;0.10;;;22.90;68.70;;;;;;6177581;28;21182;-62
2022/10/15 04:38:34;;;;;;;0.17;0.10;;;22.90;68.50;;;;;;6179754;28;20167;-62
2022/10/15 04:41:38;;;;;;;0.10;0.10;;;22.50;68.40;;;;;;6162321;28;20144;-63
2022/10/15 04:44:43;;;;;;;0.10;0.10;;;22.80;68.60;;;;;;6177918;28;20829;-63
2022/10/15 04:47:46;;;;;;;0.00;0.00;;;22.70;68.50;;;;;;6175118;28;20101;-62
2022/10/15 04:50:51;;;;;;;0.10;0.10;;;22.90;68.50;;;;;;6178852;28;20422;-63
2022/10/15 04:53:54;;;;;;;0.10;0.10;;;22.70;68.20;;;;;;6179072;28;21383;-62
2022/10/15 04:56:57;;;;;;;0.10;0.10;;;23.00;68.40;;;;;;6178805;28;20064;-63
2022/10/15 04:59:59;;;;;;;0.10;0.10;;;22.80;68.10;;;;;;6178503;28;20144;-63
2022/10/15 05:03:21;;;;;;;0.00;0.00;;;23.00;68.30;;;;;;6176783;28;20113;-63
2022/10/15 05:06:28;;;;;;;0.32;0.10;;;22.60;68.10;;;;;;6177862;28;20388;-63
2022/10/15 05:09:37;;;;;;;0.10;0.10;;;22.90;68.10;;;;;;6174395;28;20318;-63
2022/10/15 05:12:43;;;;;;;0.03;0.03;;;22.60;68.00;;;;;;6175297;28;20870;-62
2022/10/15 05:15:45;;;;;;;0.10;0.10;;;22.80;68.20;;;;;;6178898;28;20153;-62
2022/10/15 05:18:52;;;;;;;0.10;0.10;;;22.50;67.90;;;;;;6182154;28;20174;-62
2022/10/15 05:21:54;;;;;;;0.10;0.10;;;22.40;67.50;;;;;;6178695;28;20290;-63
2022/10/15 05:24:59;;;;;;;0.10;0.10;;;22.80;67.90;;;;;;6181331;28;20947;-62
2022/10/15 05:28:03;;;;;;;0.03;0.03;;;22.70;67.80;;;;;;6180347;28;20033;-64
2022/10/15 05:31:06;;;;;;;0.10;0.10;;;22.70;67.70;;;;;;6181880;28;20048;-63
2022/10/15 05:34:11;;;;;;;0.10;0.10;;;22.60;67.40;;;;;;6176987;28;20148;-63
2022/10/15 05:37:20;;;;;;;0.08;0.08;;;22.80;67.50;;;;;;6181240;28;20363;-63
2022/10/15 05:40:22;;;;;;;0.30;0.20;;;22.80;67.40;;;;;;6181115;28;20676;-63
2022/10/15 05:43:37;;;;;;;0.10;0.10;;;22.50;67.40;;;;;;6183272;28;20148;-62
2022/10/15 05:46:48;;;;;;;0.10;0.10;;;22.80;67.60;;;;;;6155688;28;20043;-63
2022/10/15 05:49:56;;;;;;;0.10;0.10;;;22.70;82.40;;;;;;6165761;28;20041;-63
2022/10/15 05:53:03;;;;;;;0.05;0.05;;;22.80;67.60;;;;;;6164444;28;20799;-64
2022/10/15 05:56:12;;;;;;;0.08;0.08;;;22.90;67.50;;;;;;6182981;28;20095;-62
2022/10/15 05:59:13;;;;;;;0.10;0.10;;;23.00;67.50;;;;;;6180731;28;20075;-64
2022/10/15 06:02:15;;;;;;;;;;;23.10;67.50;;;;;;6180713;28;20038;-62
2022/10/15 06:05:19;;;;;;;0.10;0.00;;;22.80;67.60;;;;;;6181255;28;19929;-62
2022/10/15 06:08:22;;;;;;;0.10;0.10;;;22.90;67.40;;;;;;6178292;28;20565;-62
2022/10/15 06:11:23;;;;;;;0.10;0.10;;;22.50;66.90;;;;;;6178401;28;20730;-62
2022/10/15 06:14:25;;;;;;;;;;;22.50;67.20;;;;;;6181321;28;20056;-62
2022/10/15 06:17:27;;;;;;;0.00;0.00;;;22.80;67.40;;;;;;6176296;28;20008;-62
2022/10/15 06:20:31;;;;;;;;;;;22.80;67.30;;;;;;6176359;28;20346;-62
2022/10/15 06:23:33;;;;;;;0.10;0.10;;;22.70;67.40;;;;;;6176918;28;20475;-63
2022/10/15 06:26:35;;;;;;;0.10;0.10;;;22.70;67.10;;;;;;6160523;28;20033;-62
2022/10/15 06:29:36;;;;;;;;;;;23.20;67.40;;;;;;6176102;28;20639;-62
2022/10/15 06:32:37;;;;;;;0.10;0.10;;;22.80;67.30;;;;;;6177228;28;20752;-62
2022/10/15 06:35:40;;;;;;;;;;;22.30;66.90;;;;;;6174228;28;20087;-62
2022/10/15 06:38:43;;;;;;;0.10;0.10;;;22.70;67.30;;;;;;6178183;28;20010;-63
2022/10/15 06:41:44;;;;;;;0.05;0.05;;;22.90;66.80;;;;;;6174985;28;20229;-63
2022/10/15 06:44:45;;;;;;;;;;;22.70;67.00;;;;;;6177752;28;20050;-62
2022/10/15 06:47:51;;;;;;;0.05;0.05;;;22.80;67.20;;;;;;6169333;28;19928;-62
2022/10/15 06:50:52;;;;;;;;;;;22.70;66.90;;;;;;6172005;28;20042;-62
2022/10/15 06:53:54;;;;;;;0.00;0.00;;;22.80;67.10;;;;;;6172522;28;19963;-62
2022/10/15 06:56:56;;;;;;;0.10;0.10;;;22.70;66.90;;;;;;6171596;28;20273;-62
2022/10/15 06:59:57;;;;;;;;;;;22.80;66.80;;;;;;6176842;28;20851;-62
2022/10/15 07:03:03;;;;;;;0.00;0.00;;;22.90;67.00;;;;;;6172816;28;20708;-62
2022/10/15 07:06:07;;;;;;;0.20;0.10;;;22.80;66.50;;;;;;6158989;28;20141;-62
2022/10/15 07:09:09;;;;;;;0.10;0.10;;;22.80;66.50;;;;;;6172049;28;20037;-62
2022/10/15 07:12:10;;;;;;;0.10;0.10;;;22.80;66.30;;;;;;6177696;28;20139;-62
2022/10/15 07:15:11;;;;;;;;;;;22.60;66.30;;;;;;6171191;28;20075;-62
2022/10/15 07:18:13;;;;;;;0.10;0.10;;;22.60;66.50;;;;;;6174894;28;20119;-63
2022/10/15 07:21:15;;;;;;;0.10;0.10;;;22.50;66.10;;;;;;6175613;28;20527;-63
2022/10/15 07:24:20;;;;;;;0.10;0.10;;;22.60;66.00;;;;;;6177219;28;20279;-62
2022/10/15 07:27:21;;;;;;;0.00;0.00;;;22.70;65.90;;;;;;6172902;28;20493;-62
2022/10/15 07:30:26;;;;;;;0.00;0.00;;;22.80;65.80;;;;;;6173093;28;20608;-62
2022/10/15 07:33:27;;;;;;;0.00;0.00;;;22.80;65.70;;;;;;6155983;28;20061;-62
2022/10/15 07:36:33;;;;;;;0.10;0.10;;;22.70;65.60;;;;;;6168970;28;20050;-62
2022/10/15 07:39:35;;;;;;;;;;;22.80;65.60;;;;;;6172802;28;20793;-63
2022/10/15 07:42:42;;;;;;;0.10;0.10;;;22.80;65.80;;;;;;6174346;28;19933;-62
2022/10/15 07:45:47;;;;;;;0.10;0.10;;;22.70;65.40;;;;;;6167183;28;20422;-62
2022/10/15 07:48:49;;;;;;;0.10;0.10;;;22.70;65.00;;;;;;6166935;28;20042;-62
2022/10/15 07:51:51;;;;;;;0.10;0.10;;;22.40;65.00;;;;;;6168001;28;20041;-62
2022/10/15 07:54:53;;;;;;;0.10;0.10;;;22.60;65.00;;;;;;6165241;28;20046;-62
2022/10/15 07:57:57;;;;;;;0.10;0.10;;;23.00;65.80;;;;;;6168822;28;21346;-62
2022/10/15 08:00:59;;;;;;;0.10;0.10;;;22.30;64.50;;;;;;6171363;28;20095;-63
2022/10/15 08:04:01;;;;;;;0.10;0.10;;;22.50;64.60;;;;;;6171762;28;20037;-63
2022/10/15 08:07:02;;;;;;;0.10;0.10;;;22.80;64.60;;;;;;6168441;28;20045;-61
2022/10/15 08:10:10;;;;;;;0.10;0.10;;;22.80;64.80;;;;;;6166672;28;20040;-62
2022/10/15 08:13:13;;;;;;;0.10;0.10;;;22.70;64.30;;;;;;6169693;28;20758;-62
2022/10/15 08:16:18;;;;;;;0.13;0.10;;;22.50;64.40;;;;;;6170042;28;20523;-62
2022/10/15 08:19:29;;;;;;;0.05;0.00;;;22.80;64.30;;;;;;6171836;28;20379;-62
2022/10/15 08:22:30;;;;;;;0.10;0.10;;;22.90;64.40;;;;;;6169816;28;20347;-63
2022/10/15 08:25:33;;;;;;;0.10;0.10;;;22.90;64.80;;;;;;6174311;28;20152;-63
2022/10/15 08:28:35;;;;;;;0.10;0.10;;;22.90;64.30;;;;;;6176168;28;20410;-62
2022/10/15 08:31:37;;;;;;;0.10;0.10;;;22.60;63.80;;;;;;6152597;28;20057;-62
2022/10/15 08:34:38;;;;;;;0.35;0.10;;;22.80;64.10;;;;;;6176554;28;20076;-62
2022/10/15 08:37:40;;;;;;;0.10;0.10;;;22.80;63.60;;;;;;6173558;28;20353;-62
2022/10/15 08:40:47;;;;;;;0.10;0.10;;;23.00;64.20;;;;;;6173077;28;20968;-62
2022/10/15 08:43:49;;;;;;;0.10;0.10;;;23.20;63.90;;;;;;6172681;28;20046;-62
2022/10/15 08:46:54;;;;;;;0.10;0.10;;;23.00;63.80;;;;;;6171010;28;20053;-63
2022/10/15 08:49:59;;;;;;;0.10;0.10;;;23.10;79.00;;;;;;6174302;28;20048;-62
2022/10/15 08:53:08;;;;;;;0.10;0.10;;;22.90;63.60;;;;;;6154694;28;20065;-62
2022/10/15 08:56:16;;;;;;;0.10;0.10;;;22.90;63.70;;;;;;6155846;28;20395;-62
2022/10/15 08:59:30;;;;;;;0.10;0.10;;;22.90;63.50;;;;;;6168188;28;20387;-63
2022/10/15 09:02:39;;;;;;;0.10;0.10;;;22.60;63.40;;;;;;6151223;28;20311;-62
2022/10/15 09:05:48;;;;;;;0.10;0.10;;;22.80;63.50;;;;;;6169462;28;20056;-63
2022/10/15 09:08:58;;;;;;;0.10;0.10;;;22.80;63.40;;;;;;6168293;28;20465;-62
2022/10/15 09:12:08;;;;;;;0.10;0.10;;;22.80;63.40;;;;;;6171112;28;20620;-62
2022/10/15 09:15:13;;;;;;;0.20;0.20;;;22.80;63.30;;;;;;6170353;28;20432;-62
2022/10/15 09:18:20;;;;;;;0.10;0.10;;;22.60;63.10;;;;;;6151761;28;20563;-62
2022/10/15 09:21:24;;;;;;;0.10;0.10;;;22.90;63.20;;;;;;6149696;28;20353;-62
2022/10/15 09:24:28;;;;;;;0.10;0.10;;;23.00;63.30;;;;;;6168376;28;20099;-62
2022/10/15 09:27:33;;;;;;;0.00;0.00;;;22.60;63.00;;;;;;6153945;28;20045;-63
2022/10/15 09:30:41;;;;;;;0.03;0.03;;;22.60;62.90;;;;;;6152490;28;20813;-62
2022/10/15 09:33:47;;;;;;;0.10;0.10;;;22.90;63.00;;;;;;6169738;28;20163;-63
2022/10/15 09:36:53;;;;;;;0.10;0.10;;;22.80;63.00;;;;;;6170250;28;20347;-63
2022/10/15 09:40:13;;;;;;;0.08;0.08;;;22.70;62.80;;;;;;6152974;28;20153;-62
2022/10/15 09:43:26;;;;;;;0.00;0.00;;;23.20;63.10;;;;;;6167088;28;20907;-63
2022/10/15 09:46:28;;;;;;;0.05;0.05;;;23.00;63.00;;;;;;6165953;28;20053;-61
2022/10/15 09:49:29;;;;;;;0.10;0.10;;;23.10;63.10;;;;;;6163196;28;20166;-63
2022/10/15 09:52:54;;;;;;;0.20;0.10;;;23.00;62.90;;;;;;6170114;28;20317;-62
2022/10/15 09:56:02;;;;;;;0.10;0.10;;;22.90;62.80;;;;;;6149052;28;20053;-62
2022/10/15 09:59:05;;;;;;;0.20;0.10;;;22.90;62.80;;;;;;6167316;28;20909;-63
2022/10/15 10:02:18;;;;;;;0.10;0.10;;;23.20;63.10;;;;;;6171414;28;20790;-62
2022/10/15 10:05:27;;;;;;;0.03;0.00;;;22.70;62.70;;;;;;6139128;28;20050;-64
2022/10/15 10:08:33;;;;;;;0.13;0.13;;;23.10;62.90;;;;;;6147987;28;20435;-62
2022/10/15 10:11:47;;;;;;;0.10;0.10;;;22.70;62.50;;;;;;6154274;28;20458;-63
2022/10/15 10:14:55;;;;;;;0.10;0.10;;;22.90;62.70;;;;;;6151430;28;20045;-62
2022/10/15 10:17:58;;;;;;;0.20;0.10;;;22.90;62.80;;;;;;6141929;28;20445;-63
2022/10/15 10:21:01;;;;;;;0.10;0.10;;;23.20;63.00;;;;;;6165246;28;20629;-62
2022/10/15 10:24:18;;;;;;;0.10;0.10;;;22.90;63.20;;;;;;6156842;28;20526;-63
2022/10/15 10:27:23;;;;;;;0.10;0.10;;;22.80;62.50;;;;;;6156807;28;20431;-62
2022/10/15 10:30:26;;;;;;;0.15;0.15;;;22.90;62.60;;;;;;6150901;28;20396;-63
2022/10/15 10:33:30;;;;;;;0.10;0.10;;;23.10;62.90;;;;;;6179165;28;20388;-63
2022/10/15 10:36:34;;;;;;;0.10;0.10;;;23.00;62.70;;;;;;6174145;28;20078;-62
2022/10/15 10:39:38;;;;;;;0.10;0.10;;;22.90;62.70;;;;;;6156140;28;20851;-63
2022/10/15 10:42:39;;;;;;;;;;;23.20;63.10;;;;;;6157735;28;20592;-63
2022/10/15 10:45:53;;;;;;;0.17;0.10;;;22.80;63.20;;;;;;6175032;28;20580;-63
2022/10/15 10:48:54;;;;;;;0.00;0.00;;;23.20;63.00;;;;;;6177087;28;20037;-63
2022/10/15 10:51:55;;;;;;;;;;;23.20;63.20;;;;;;6175096;28;20359;-63
2022/10/15 10:55:01;;;;;;;0.10;0.10;;;23.10;63.40;;;;;;6179735;28;20275;-63
2022/10/15 10:58:03;;;;;;;0.10;0.10;;;23.20;63.20;;;;;;6178633;28;20053;-62
2022/10/15 11:01:09;;;;;;;0.52;0.10;;;22.80;63.00;;;;;;6177799;28;20052;-62
2022/10/15 11:04:12;;;;;;;0.08;0.08;;;23.00;63.00;;;;;;6174320;28;20049;-63
2022/10/15 11:07:27;;;;;;;0.10;0.10;;;23.20;63.20;;;;;;6176854;28;20983;-63
2022/10/15 11:10:34;;;;;;;0.10;0.10;;;23.10;63.10;;;;;;6174132;28;20840;-62
2022/10/15 11:13:46;;;;;;;0.10;0.10;;;23.00;63.10;;;;;;6179175;28;20436;-62
2022/10/15 11:16:56;;;;;;;0.10;0.10;;;22.80;63.00;;;;;;6174858;28;20362;-63
2022/10/15 11:20:06;;;;;;;0.10;0.10;;;23.30;63.20;;;;;;6175084;28;20045;-63
2022/10/15 11:23:45;;;;;;;0.45;0.10;;;23.10;63.40;;;;;;6163968;28;20399;-62
2022/10/15 11:27:03;;;;;;;0.20;0.10;;;23.10;63.30;;;;;;6177470;28;20396;-63
2022/10/15 11:30:29;;;;;;;0.10;0.10;;;23.20;63.30;;;;;;6170142;28;20054;-63
2022/10/15 11:33:47;;;;;;;0.10;0.10;;;23.10;63.20;;;;;;6174478;28;20277;-62
2022/10/15 11:37:04;;;;;;;0.20;0.20;;;22.70;63.20;;;;;;6173370;28;20493;-62
2022/10/15 11:40:20;;;;;;;0.22;0.20;;;23.00;63.20;;;;;;6167689;28;20038;-62
2022/10/15 11:43:33;;;;;;;0.10;0.10;;;23.20;63.40;;;;;;6169469;28;20111;-62
2022/10/15 11:46:41;;;;;;;0.10;0.10;;;22.90;63.20;;;;;;6173639;28;20129;-63
2022/10/15 11:49:57;;;;;;;0.20;0.20;;;23.00;78.20;;;;;;6172711;28;20417;-63
2022/10/15 11:53:19;;;;;;;0.10;0.10;;;23.20;63.30;;;;;;6160432;28;20494;-62
2022/10/15 11:56:26;;;;;;;0.20;0.10;;;23.20;63.20;;;;;;6166723;28;20290;-62
2022/10/15 11:59:34;;;;;;;0.00;0.00;;;23.00;63.10;;;;;;6169942;28;20472;-62
2022/10/15 12:02:37;;;;;;;0.10;0.10;;;23.20;63.20;;;;;;6168852;28;20044;-63
2022/10/15 12:05:46;;;;;;;0.20;0.10;;;23.10;63.10;;;;;;6148974;28;20321;-63
2022/10/15 12:08:49;;;;;;;0.10;0.10;;;22.80;63.00;;;;;;6152147;28;20405;-61
2022/10/15 12:11:58;;;;;;;0.10;0.10;;;23.30;63.30;;;;;;6172916;28;20148;-61
2022/10/15 12:15:23;;;;;;;0.10;0.10;;;22.80;63.00;;;;;;6155788;28;20041;-62
2022/10/15 12:18:32;;;;;;;0.20;0.10;;;22.80;63.00;;;;;;6169146;28;20056;-62
2022/10/15 12:21:37;;;;;;;0.10;0.10;;;23.20;63.20;;;;;;6160306;28;20037;-62
2022/10/15 12:24:54;;;;;;;0.10;0.10;;;23.00;63.10;;;;;;6147116;28;20140;-63
2022/10/15 12:27:59;;;;;;;0.10;0.10;;;23.10;63.20;;;;;;6148564;28;21058;-62
2022/10/15 12:31:03;;;;;;;0.10;0.10;;;23.10;63.10;;;;;;6164792;28;20481;-63
2022/10/15 12:34:05;;;;;;;0.10;0.10;;;23.40;63.20;;;;;;6147672;28;20509;-62
2022/10/15 12:37:16;;;;;;;0.00;0.00;;;23.20;63.30;;;;;;6165582;28;20063;-63
2022/10/15 12:40:27;;;;;;;0.00;0.00;;;23.20;63.20;;;;;;6157884;28;20314;-62
2022/10/15 12:43:32;;;;;;;0.10;0.10;;;22.70;63.00;;;;;;6156050;28;20461;-62
2022/10/15 12:46:37;;;;;;;0.10;0.10;;;23.20;63.30;;;;;;6165487;28;20821;-62
2022/10/15 12:49:57;;;;;;;0.10;0.10;;;23.20;63.20;;;;;;6142701;28;20036;-63
2022/10/15 12:53:00;;;;;;;0.10;0.10;;;23.30;63.30;;;;;;6154905;28;20055;-62
2022/10/15 12:56:21;;;;;;;0.10;0.10;;;23.00;63.10;;;;;;6162840;28;20037;-63
2022/10/15 12:59:29;;;;;;;0.43;0.00;;;23.10;63.00;;;;;;6168173;28;20234;-63
2022/10/15 13:02:37;;;;;;;0.13;0.08;;;23.10;63.00;;;;;;6162272;28;20599;-63
2022/10/15 13:05:39;;;;;;;0.30;0.10;;;22.90;62.80;;;;;;6130082;28;20560;-62
2022/10/15 13:08:44;;;;;;;0.10;0.10;;;23.20;62.90;;;;;;6158900;28;20046;-63
2022/10/15 13:11:47;;;;;;;0.57;0.10;;;23.10;62.70;;;;;;6144948;28;20618;-63
2022/10/15 13:14:55;;;;;;;0.10;0.10;;;23.40;62.90;;;;;;6167285;28;20623;-62
2022/10/15 13:17:59;;;;;;;0.10;0.10;;;23.30;62.30;;;;;;6149524;28;20532;-62
2022/10/15 13:21:01;;;;;;;0.10;0.10;;;23.10;62.10;;;;;;6146952;28;20473;-62
2022/10/15 13:24:11;;;;;;;0.10;0.10;;;23.20;62.10;;;;;;6127646;28;20057;-62
2022/10/15 13:27:14;;;;;;;0.10;0.10;;;23.50;62.00;;;;;;6166909;28;20041;-62
2022/10/15 13:30:16;;;;;;;0.10;0.10;;;23.40;61.80;;;;;;6143172;28;20648;-63
2022/10/15 13:33:18;;;;;;;0.10;0.10;;;23.00;61.40;;;;;;6162417;28;20052;-62
2022/10/15 13:36:23;;;;;;;0.10;0.10;;;23.30;61.60;;;;;;6162961;28;20076;-62
2022/10/15 13:39:31;;;;;;;0.22;0.13;;;23.40;61.30;;;;;;6138746;28;20556;-61
2022/10/15 13:42:32;;;;;;;0.20;0.10;;;23.40;61.00;;;;;;6159313;28;20517;-61
2022/10/15 13:45:36;;;;;;;0.00;0.00;;;23.40;60.90;;;;;;6164036;28;20084;-62
2022/10/15 13:48:41;;;;;;;0.30;0.10;;;23.50;60.90;;;;;;6149740;28;20048;-62
2022/10/15 13:51:44;;;;;;;0.30;0.10;;;23.20;60.40;;;;;;6147025;28;20508;-62
2022/10/15 13:54:46;;;;;;;0.17;0.10;;;23.30;60.30;;;;;;6165452;28;20515;-63
2022/10/15 13:57:50;;;;;;;0.10;0.10;;;23.20;60.30;;;;;;6169743;28;20104;-63
2022/10/15 14:00:57;;;;;;;0.10;0.10;;;22.90;59.80;;;;;;6147261;28;20129;-62
2022/10/15 14:04:01;;;;;;;0.10;0.10;;;23.50;59.90;;;;;;6151642;28;20745;-63
2022/10/15 14:07:07;;;;;;;0.55;0.20;;;23.20;59.70;;;;;;6142396;28;20501;-62
2022/10/15 14:10:10;;;;;;;0.10;0.10;;;23.20;59.50;;;;;;6137049;28;20052;-61
2022/10/15 14:13:12;;;;;;;0.10;0.10;;;23.30;59.60;;;;;;6175006;28;20236;-62
2022/10/15 14:16:19;;;;;;;0.20;0.15;;;23.50;59.30;;;;;;6170454;28;20038;-62
2022/10/15 14:19:25;;;;;;;0.10;0.10;;;23.10;58.90;;;;;;6164681;28;20533;-62
2022/10/15 14:22:28;;;;;;;0.10;0.10;;;23.20;58.90;;;;;;6168458;28;20905;-63
2022/10/15 14:25:30;;;;;;;0.15;0.10;;;23.10;58.70;;;;;;6165814;28;20212;-62
2022/10/15 14:28:33;;;;;;;0.15;0.13;;;23.20;58.50;;;;;;6166586;28;20566;-62
2022/10/15 14:31:39;;;;;;;0.25;0.10;;;23.40;58.50;;;;;;6167078;28;20229;-62
2022/10/15 14:34:41;;;;;;;0.20;0.20;;;23.00;58.10;;;;;;6152402;28;20048;-62
2022/10/15 14:37:43;;;;;;;0.10;0.10;;;23.50;58.40;;;;;;6161237;28;20386;-63
2022/10/15 14:40:57;;;;;;;0.40;0.13;;;23.30;58.20;;;;;;6164987;28;20365;-62
2022/10/15 14:44:04;;;;;;;0.10;0.10;;;23.20;57.80;;;;;;6172877;28;20160;-62
2022/10/15 14:47:05;;;;;;;0.10;0.10;;;23.40;57.90;;;;;;6148649;28;20037;-62
2022/10/15 14:50:10;;;;;;;0.20;0.15;;;23.30;57.80;;;;;;6170497;28;20138;-61
2022/10/15 14:53:17;;;;;;;0.10;0.10;;;23.70;57.70;;;;;;6170873;28;20941;-60
2022/10/15 14:56:22;;;;;;;0.25;0.20;;;23.20;57.20;;;;;;6153575;28;20403;-62
2022/10/15 14:59:29;;;;;;;0.38;0.10;;;23.50;57.30;;;;;;6153945;28;20041;-62
2022/10/15 15:02:31;;;;;;;0.15;0.10;;;23.40;57.00;;;;;;6155417;28;20861;-62
2022/10/15 15:05:46;;;;;;;0.40;0.10;;;23.30;57.00;;;;;;6172897;28;20053;-62
2022/10/15 15:08:47;;;;;;;0.10;0.10;;;23.10;56.50;;;;;;6154337;28;20299;-63
2022/10/15 15:11:49;;;;;;;0.28;0.10;;;23.70;56.90;;;;;;6170675;28;20798;-62
2022/10/15 15:14:51;;;;;;;0.20;0.10;;;23.40;56.60;;;;;;6169497;28;20348;-62
2022/10/15 15:17:53;;;;;;;0.20;0.20;;;23.40;56.40;;;;;;6173041;28;20357;-62
2022/10/15 15:20:58;;;;;;;0.20;0.20;;;23.50;56.40;;;;;;6153636;28;20339;-63
2022/10/15 15:24:00;;;;;;;0.20;0.13;;;22.80;55.90;;;;;;6167292;28;20046;-62
2022/10/15 15:27:02;;;;;;;;;;;23.20;56.20;;;;;;6169099;28;20046;-62
2022/10/15 15:30:05;;;;;;;0.30;0.20;;;23.30;56.50;;;;;;6164456;28;20226;-61
2022/10/15 15:33:09;;;;;;;0.15;0.10;;;23.50;56.40;;;;;;6148501;28;20305;-62
2022/10/15 15:36:13;;;;;;;0.20;0.20;;;23.30;56.00;;;;;;6164422;28;20356;-63
2022/10/15 15:39:23;;;;;;;0.20;0.10;;;23.40;55.90;;;;;;6166485;28;20111;-62
2022/10/15 15:42:25;;;;;;;0.30;0.20;;;23.10;55.70;;;;;;6172381;28;20428;-62
2022/10/15 15:45:28;;;;;;;0.10;0.10;;;23.30;55.80;;;;;;6164822;28;20273;-62
2022/10/15 15:48:29;;;;;;;0.15;0.10;;;23.60;55.70;;;;;;6155564;28;20212;-62
2022/10/15 15:51:31;;;;;;;;;;;23.10;55.60;;;;;;6165913;28;20072;-62
2022/10/15 15:54:33;;;;;;;0.40;0.10;;;23.80;56.00;;;;;;6170943;28;19935;-63
2022/10/15 15:57:35;;;;;;;0.20;0.13;;;23.30;55.90;;;;;;6166731;28;20901;-63
2022/10/15 16:00:37;;;;;;;0.20;0.10;;;23.60;55.50;;;;;;6148951;28;21152;-63
2022/10/15 16:03:38;;;;;;;;;;;23.30;55.50;;;;;;6149021;28;20372;-63
2022/10/15 16:06:43;;;;;;;0.32;0.05;;;23.50;55.80;;;;;;6168803;28;20115;-63
2022/10/15 16:09:44;;;;;;;0.10;0.10;;;23.30;55.40;;;;;;6151301;28;20050;-62
2022/10/15 16:12:47;;;;;;;0.20;0.10;;;23.50;55.30;;;;;;6169201;28;20345;-62